Enter the Airport ICAO Code

Search by Airport or City

Current Weather

SARI | Cataratas del Iguaz˙ International Airport

Puerto Iguaz˙,áMisiones, Argentina

Last Update 57 Minutes Ago

Clear Sky

Temperature of 26 ║C

Moderate Winds from SouthEast

Temperature

26 ║C

Dew Point Temperature

19 ║C

Relative Humidity

65.52 %

Wind Direction

SouthEast (140║, Without Significant Variations)

Wind Velocity

20 km/h (11 kt)

Gusts

None

Visibility

No Significant Reductions

Sea Level Pressure

1016 hPa (Hectopascals)

Layers of Clouds

None

METAR SARI 211300Z 14011KT CAVOK 26/19 Q1016

Weather Forecast

SARI | Cataratas del Iguaz˙ International Airport

Puerto Iguaz˙,áMisiones, Argentina

Forecast valid for the next 22 Hours

From now on it is expected:

Sky Without Significant nor Low Altitude Clouds

Moderate Winds from SouthEast

Maximum Temperature

28 ║C in 1 Hour

Minimum Temperature

16 ║C in 19 Hours

TAF SARI 211100Z 2112/2212 14010KT 9000 NSC TX28/2115Z TN16/2209Z